This is the latest recevied weather packets stored in our database for station/object N7TUG. If no packets are shown the sender has not sent any weather packets the latest 10 day(s).
| Time | Temp. | Humidity | Pressure | Rain* | Wind** | Luminosity | Snow |
|---|---|---|---|---|---|---|---|
| 1777272915 | 11.67° C | 83% | 1011.4 hPa | 0 mm | - | 18 W/m² | - |
| 1777269315 | 13.33° C | 78% | 1010.9 hPa | 0 mm | - | 18 W/m² | - |
| 1777266916 | 14.44° C | 68% | 1010.6 hPa | 0 mm | - | 18 W/m² | - |
| 1777263956 | 15° C | 63% | 1010.1 hPa | 0 mm | - | 18 W/m² | - |
| 1777255536 | 21.11° C | 36% | 1009 hPa | 0 mm | - | 66 W/m² | - |
| 1777253715 | 18.89° C | 37% | 1008.9 hPa | 0 mm | - | 136 W/m² | - |
| 1777245915 | 22.78° C | 37% | 1008.6 hPa | 0 mm | - | 554 W/m² | - |
| 1777243516 | 21.67° C | 37% | 1008.7 hPa | 0 mm | - | 657 W/m² | - |
| 1777242956 | 21.11° C | 38% | 1008.7 hPa | 0 mm | - | 678 W/m² | - |
| 1777242315 | 20° C | 39% | 1008.8 hPa | 0 mm | - | 698 W/m² | - |
| 1777239935 | 20° C | 40% | 1008.9 hPa | 0 mm | - | 773 W/m² | - |
| 1777226115 | 18.33° C | 48% | 1009.5 hPa | 0 mm | - | 706 W/m² | - |
| 1777223115 | 16.11° C | 50% | 1009.4 hPa | 0 mm | - | 580 W/m² | - |
| 1777221915 | 15° C | 52% | 1009.4 hPa | 0 mm | - | 519 W/m² | - |
| 1777217115 | 10.56° C | 64% | 1009.4 hPa | 0 mm | - | 273 W/m² | - |
| 1777211715 | 9.44° C | 76% | 1008.9 hPa | 0 mm | - | 59 W/m² | - |
| 1777207515 | 6.67° C | 78% | 1008.6 hPa | 0 mm | - | 19 W/m² | - |
| 1777206315 | 7.78° C | 76% | 1008.7 hPa | 0 mm | - | 18 W/m² | - |
| 1777197315 | 8.33° C | 71% | 1008.5 hPa | 0 mm | - | 18 W/m² | - |
| 1777188955 | 10° C | 65% | 1008.6 hPa | 0 mm | - | 18 W/m² | - |
| 1777186535 | 10.56° C | 60% | 1008.6 hPa | 0 mm | - | 18 W/m² | - |
| 1777178735 | 13.33° C | 51% | 1008.6 hPa | 0 mm | - | 18 W/m² | - |
| 1777172115 | 16.11° C | 43% | 1008.5 hPa | 0 mm | - | 33 W/m² | - |
| 1777171515 | 16.11° C | 42% | 1008.5 hPa | 0 mm | - | 39 W/m² | - |
| 1777160715 | 17.22° C | 39% | 1009.3 hPa | 0 mm | - | 492 W/m² | - |
* Rain latest hour (hover to see other rain measurements)
** Current wind speed in m/s (hover to see current wind gust speed)